Terminal Aerodrome Forecast
Issued by NWS

Home | Current Version | Previous Version | Text Only | Print | Product List | Glossary On
Versions: 1 2 3 4 5 6 7 8 9 10 11 12 13 14 15 16 17 18
000
FTUS46 KPDT 191132
TAFBDN
TAF
KBDN 191132Z 1912/2012 22013G23KT P6SM SCT030 BKN060
     FM191600 29015G25KT P6SM VCSH SCT040 BKN060
     FM200500 21012KT P6SM -RA BKN040 OVC050=

USA.gov is the U.S. government's official web portal to all federal, state and local government web resources and services.